Terminal Aerodrome Forecast
Issued by NWS

Home | Current Version | Previous Version | Text Only | Print | Product List | Glossary On
Versions: 1 2 3 4 5 6 7 8 9 10 11 12 13 14 15 16 17 18 19 20 21 22 23 24 25 26 27 28
000
FTUS43 KGLD 230800 AAA
TAFMCK
TAF AMD
KMCK 230826Z 2308/2406 06011KT P6SM VCSH BKN025
     FM231100 10007KT 6SM BR SCT012
     FM231400 12008KT P6SM FEW020
     FM231800 12012KT P6SM FEW030
     FM240200 12007KT P6SM SCT300=

USA.gov is the U.S. government's official web portal to all federal, state and local government web resources and services.